Decoded Metar for LKKV (KARLOVY VARY in CZECH REPUBLIC) (IATA:KLV) | Meteo·Mobile Aviation Weather
aviador You're here:

LKKV Decoded Metar

KARLOVY VARY in CZECH REPUBLIC
Report Time2018-12-15 17:00:00
UTC Time2018-12-15 17:07:25
Flight Rules vfr VFR
WindCalm
Visibility9999 m
Phenomena:N/A
Clouds:Few 016 Hf
Broken 030 Hf
Expected CloudBase > 800 ft AGL from Temp-Dew spread
Ceiling3,000 ft
Temp-4°C (ISA -15)
Dew Point-6°C (86% RH)
AAT-6.7°C
QNH1022 hPa
Density Alt-112 ft
Elevation1,982 ft
Report Wrong Elevation
Raw Report
METAR LKKV 151700Z 00000KT 9999 FEW016 BKN030 M04/M06 Q1022
R29///////=

Extra information for LKKV:More info

Metar Taf Metar & Taf Last 4 Metars F.Rules Stats Wind Profile Meteogram Temp Stats Airport Information Weather charts Add Link Nearby VenuesMetar ALERT Operation Metar Decoded Social comments